createdAt,value
2023-06-17T00:00:52.826Z,99271.71
2023-06-17T00:01:55.455Z,99273.38
2023-06-17T00:02:58.773Z,99270.03
2023-06-17T00:04:02.883Z,99272.94
2023-06-17T00:05:06.648Z,99271.57
2023-06-17T00:06:10.854Z,99272.54
2023-06-17T00:07:13.779Z,99271.57
2023-06-17T00:08:16.038Z,99277.27
2023-06-17T00:09:18.346Z,99273.11
2023-06-17T00:10:21.632Z,99272.14
2023-06-17T00:11:25.208Z,99271.16
2023-06-17T00:12:30.532Z,99273.80
2023-06-17T00:13:33.230Z,99269.50
2023-06-17T00:14:38.098Z,99273.92
2023-06-17T00:15:42.248Z,99273.92
2023-06-17T00:16:45.219Z,99270.47
2023-06-17T00:17:47.580Z,99277.56
2023-06-17T00:18:51.885Z,99277.67
2023-06-17T00:19:56.061Z,99277.83
2023-06-17T00:20:58.498Z,99275.04
2023-06-17T00:22:01.199Z,99277.01
2023-06-17T00:23:04.704Z,99276.16
2023-06-17T00:24:07.233Z,99265.75
2023-06-17T00:25:10.790Z,99267.54
2023-06-17T00:26:13.413Z,99265.88
2023-06-17T00:27:16.915Z,99260.59
2023-06-17T00:28:19.692Z,99272.00
2023-06-17T00:29:22.160Z,99262.27
2023-06-17T00:30:24.909Z,99262.27
2023-06-17T00:31:27.445Z,99258.66
2023-06-17T00:32:33.117Z,99268.80
2023-06-17T00:33:35.591Z,99268.39
2023-06-17T00:34:37.659Z,99271.84
2023-06-17T00:35:40.306Z,99264.48
2023-06-17T00:36:43.168Z,99271.58
2023-06-17T00:37:45.568Z,99267.38
2023-06-17T00:38:48.079Z,99272.40
2023-06-17T00:39:50.346Z,99265.20
2023-06-17T00:40:53.374Z,99271.44
2023-06-17T00:41:58.027Z,99262.55
2023-06-17T00:43:00.416Z,99273.52
2023-06-17T00:44:02.822Z,99268.09
2023-06-17T00:45:06.642Z,99271.58
2023-06-17T00:46:14.948Z,99264.48
2023-06-17T00:47:17.558Z,99266.71
2023-06-17T00:48:20.378Z,99265.75
2023-06-17T00:49:26.323Z,99266.00
2023-06-17T00:50:29.437Z,99269.19
2023-06-17T00:51:32.689Z,99266.14
2023-06-17T00:52:41.893Z,99271.27
2023-06-17T00:53:39.611Z,99271.97
2023-06-17T00:54:42.945Z,99268.23
2023-06-17T00:55:46.129Z,99263.09
2023-06-17T00:56:51.813Z,99267.81
2023-06-17T00:57:55.028Z,99268.38
2023-06-17T00:58:58.224Z,99260.31
2023-06-17T01:00:01.445Z,99262.10
2023-06-17T01:01:04.186Z,99266.95
2023-06-17T01:02:09.347Z,99257.38
2023-06-17T01:03:11.822Z,99260.86
2023-06-17T01:04:16.639Z,99264.17
2023-06-17T01:05:20.460Z,99269.34
2023-06-17T01:06:40.388Z,99267.52
2023-06-17T01:08:20.025Z,99267.52
2023-06-17T01:09:26.191Z,99261.42
2023-06-17T01:10:32.370Z,99261.69
2023-06-17T01:11:39.615Z,99263.61
2023-06-17T01:12:43.737Z,99262.80
2023-06-17T01:13:49.615Z,99257.52
2023-06-17T01:14:55.407Z,99264.47
2023-06-17T01:15:59.712Z,99259.19
2023-06-17T01:17:06.533Z,99264.47
2023-06-17T01:18:12.255Z,99263.61
2023-06-17T01:19:22.777Z,99257.78
2023-06-17T01:20:26.933Z,99270.00
2023-06-17T01:21:32.317Z,99257.78
2023-06-17T01:22:36.994Z,99262.37
2023-06-17T01:23:41.662Z,99260.00
2023-06-17T01:24:46.466Z,99258.33
2023-06-17T01:25:50.673Z,99257.50
2023-06-17T01:26:54.986Z,99263.34
2023-06-17T01:28:01.328Z,99264.16
2023-06-17T01:29:04.097Z,99263.34
2023-06-17T01:30:09.320Z,99266.69
2023-06-17T01:31:13.358Z,99265.02
2023-06-17T01:32:17.209Z,99263.34
2023-06-17T01:33:21.990Z,99266.94
2023-06-17T01:34:34.157Z,99256.69
2023-06-17T01:35:39.244Z,99267.34
2023-06-17T01:36:45.445Z,99263.14
2023-06-17T01:37:51.307Z,99265.67
2023-06-17T01:39:03.852Z,99264.96
2023-06-17T01:40:11.393Z,99270.34
2023-06-17T01:41:20.383Z,99271.59
2023-06-17T01:42:32.757Z,99265.90
2023-06-17T01:43:36.021Z,99261.59
2023-06-17T01:44:40.523Z,99270.47
2023-06-17T01:45:43.682Z,99271.56
2023-06-17T01:46:46.075Z,99276.70
2023-06-17T01:47:48.709Z,99272.39
2023-06-17T01:48:53.806Z,99266.55
2023-06-17T01:51:10.560Z,99271.85
2023-06-17T01:52:13.161Z,99269.47
2023-06-17T01:53:16.406Z,99274.74
2023-06-17T01:54:18.721Z,99273.78
2023-06-17T01:55:21.795Z,99264.06
2023-06-17T01:56:24.289Z,99266.70
2023-06-17T01:57:27.841Z,99277.66
2023-06-17T01:58:33.288Z,99274.34
2023-06-17T01:59:35.648Z,99274.42
2023-06-17T02:00:38.529Z,99274.42
2023-06-17T02:01:41.051Z,99282.33
2023-06-17T02:02:43.279Z,99276.09
2023-06-17T02:03:46.195Z,99269.61
2023-06-17T02:04:49.364Z,99273.20
2023-06-17T02:05:52.071Z,99273.89
2023-06-17T02:06:56.162Z,99273.78
2023-06-17T02:08:00.269Z,99276.41
2023-06-17T02:09:03.963Z,99273.06
2023-06-17T02:10:07.300Z,99280.94
2023-06-17T02:11:09.849Z,99279.13
2023-06-17T02:12:13.567Z,99277.34
2023-06-17T02:13:17.120Z,99278.97
2023-06-17T02:14:20.580Z,99273.25
2023-06-17T02:15:23.369Z,99270.50
2023-06-17T02:16:26.404Z,99277.41
2023-06-17T02:17:29.231Z,99278.97
2023-06-17T02:18:32.994Z,99274.53
2023-06-17T02:19:35.955Z,99277.87
2023-06-17T02:20:38.502Z,99273.56
2023-06-17T02:21:41.076Z,99280.37
2023-06-17T02:22:43.403Z,99276.20
2023-06-17T02:23:47.694Z,99274.28
2023-06-17T02:24:50.242Z,99272.42
2023-06-17T02:25:52.436Z,99271.47
2023-06-17T02:26:55.945Z,99275.63
2023-06-17T02:28:00.418Z,99278.41
2023-06-17T02:29:03.777Z,99274.78
2023-06-17T02:30:09.875Z,99269.27
2023-06-17T02:31:12.867Z,99274.39
2023-06-17T02:32:17.324Z,99275.92
2023-06-17T02:33:19.774Z,99274.00
2023-06-17T02:34:21.963Z,99276.63
2023-06-17T02:35:24.349Z,99277.34
2023-06-17T02:36:27.203Z,99281.50
2023-06-17T02:37:30.621Z,99272.50
2023-06-17T02:38:33.781Z,99275.13
2023-06-17T02:39:36.545Z,99274.31
2023-06-17T02:40:39.952Z,99274.42
2023-06-17T02:41:44.700Z,99276.80
2023-06-17T02:42:48.340Z,99276.80
2023-06-17T02:43:51.486Z,99270.69
2023-06-17T02:44:53.775Z,99272.64
2023-06-17T02:45:56.041Z,99278.02
2023-06-17T02:46:58.440Z,99275.28
2023-06-17T02:48:00.995Z,99276.95
2023-06-17T02:49:04.849Z,99275.13
2023-06-17T02:50:08.418Z,99270.69
2023-06-17T02:51:11.188Z,99277.52
2023-06-17T02:52:13.478Z,99279.05
2023-06-17T02:53:15.760Z,99270.86
2023-06-17T02:54:18.916Z,99273.64
2023-06-17T02:55:21.392Z,99276.02
2023-06-17T02:56:24.081Z,99276.84
2023-06-17T02:57:26.456Z,99282.11
2023-06-17T02:58:28.719Z,99279.61
2023-06-17T02:59:33.318Z,99279.61
2023-06-17T03:00:36.864Z,99282.08
2023-06-17T03:01:41.045Z,99282.47
2023-06-17T03:02:43.983Z,99284.96
2023-06-17T03:03:46.438Z,99281.75
2023-06-17T03:04:49.113Z,99281.50
2023-06-17T03:05:51.680Z,99282.08
2023-06-17T03:06:55.596Z,99283.61
2023-06-17T03:07:58.067Z,99283.47
2023-06-17T03:09:01.064Z,99275.56
2023-06-17T03:10:05.255Z,99283.47
2023-06-17T03:11:10.029Z,99279.30
2023-06-17T03:12:13.210Z,99282.64
2023-06-17T03:13:16.236Z,99281.80
2023-06-17T03:14:21.404Z,99271.50
2023-06-17T03:15:24.435Z,99271.50
2023-06-17T03:16:28.734Z,99283.71
2023-06-17T03:17:31.933Z,99286.59
2023-06-17T03:18:34.499Z,99285.49
2023-06-17T03:19:37.159Z,99290.52
2023-06-17T03:20:39.681Z,99287.88
2023-06-17T03:21:43.811Z,99282.75
2023-06-17T03:22:48.114Z,99285.24
2023-06-17T03:23:51.223Z,99275.39
2023-06-17T03:24:53.913Z,99285.10
2023-06-17T03:25:56.281Z,99284.28
2023-06-17T03:26:58.872Z,99280.41
2023-06-17T03:28:03.127Z,99287.06
2023-06-17T03:29:05.975Z,99287.63
2023-06-17T03:30:10.293Z,99293.47
2023-06-17T03:31:14.685Z,99292.50
2023-06-17T03:32:17.107Z,99292.50
2023-06-17T03:33:20.193Z,99292.11
2023-06-17T03:34:22.590Z,99289.08
2023-06-17T03:35:25.858Z,99293.64
2023-06-17T03:36:29.985Z,99290.72
2023-06-17T03:37:32.619Z,99292.93
2023-06-17T03:38:35.395Z,99289.08
2023-06-17T03:39:38.734Z,99292.93
2023-06-17T03:40:41.727Z,99291.14
2023-06-17T03:41:45.161Z,99290.75
2023-06-17T03:42:47.337Z,99284.97
2023-06-17T03:43:51.194Z,99293.30
2023-06-17T03:44:53.872Z,99283.32
2023-06-17T03:45:57.264Z,99287.48
2023-06-17T03:47:00.528Z,99291.65
2023-06-17T03:48:04.185Z,99287.79
2023-06-17T03:49:06.866Z,99289.17
2023-06-17T03:50:10.371Z,99294.19
2023-06-17T03:51:15.268Z,99292.52
2023-06-17T03:52:18.213Z,99289.17
2023-06-17T03:53:20.953Z,99283.75
2023-06-17T03:54:23.486Z,99293.08
2023-06-17T03:55:25.839Z,99287.40
2023-06-17T03:56:28.814Z,99287.81
2023-06-17T03:57:31.523Z,99291.27
2023-06-17T03:58:33.944Z,99286.70
2023-06-17T03:59:37.693Z,99290.87
2023-06-17T04:00:41.463Z,99294.06
2023-06-17T04:01:44.546Z,99292.80
2023-06-17T04:02:48.023Z,99292.55
2023-06-17T04:03:52.543Z,99293.92
2023-06-17T04:04:55.463Z,99286.45
2023-06-17T04:05:57.837Z,99286.45
2023-06-17T04:07:02.879Z,99287.27
2023-06-17T04:08:07.846Z,99283.11
2023-06-17T04:09:10.666Z,99289.76
2023-06-17T04:10:13.314Z,99282.84
2023-06-17T04:11:17.031Z,99284.78
2023-06-17T04:12:19.549Z,99285.48
2023-06-17T04:13:23.046Z,99288.12
2023-06-17T04:14:27.553Z,99286.71
2023-06-17T04:15:29.904Z,99288.94
2023-06-17T04:16:34.803Z,99282.28
2023-06-17T04:17:37.283Z,99279.22
2023-06-17T04:18:41.014Z,99278.78
2023-06-17T04:19:43.258Z,99286.31
2023-06-17T04:20:45.769Z,99286.31
2023-06-17T04:21:48.098Z,99285.34
2023-06-17T04:22:50.484Z,99286.05
2023-06-17T04:23:52.826Z,99286.16
2023-06-17T04:24:56.345Z,99281.43
2023-06-17T04:26:01.319Z,99286.44
2023-06-17T04:27:06.953Z,99280.86
2023-06-17T04:28:11.624Z,99288.36
2023-06-17T04:29:15.166Z,99281.96
2023-06-17T04:30:17.998Z,99279.75
2023-06-17T04:31:20.876Z,99286.40
2023-06-17T04:32:25.205Z,99281.97
2023-06-17T04:33:30.466Z,99290.14
2023-06-17T04:34:33.716Z,99290.14
2023-06-17T04:35:37.541Z,99286.92
2023-06-17T04:36:39.908Z,99284.98
2023-06-17T04:37:43.496Z,99281.75
2023-06-17T04:38:47.737Z,99283.55
2023-06-17T04:39:52.608Z,99283.55
2023-06-17T04:40:55.579Z,99287.55
2023-06-17T04:42:00.061Z,99294.89
2023-06-17T04:43:03.008Z,99285.69
2023-06-17T04:44:08.683Z,99291.52
2023-06-17T04:45:11.463Z,99292.05
2023-06-17T04:46:17.455Z,99291.08
2023-06-17T04:47:20.692Z,99289.86
2023-06-17T04:48:23.223Z,99286.24
2023-06-17T04:49:25.425Z,99283.45
2023-06-17T04:50:30.817Z,99298.17
2023-06-17T04:51:35.009Z,99289.27
2023-06-17T04:52:39.411Z,99290.09
2023-06-17T04:53:42.237Z,99285.65
2023-06-17T04:54:44.676Z,99294.25
2023-06-17T04:55:47.190Z,99293.97
2023-06-17T04:56:53.062Z,99288.68
2023-06-17T04:57:55.382Z,99286.73
2023-06-17T04:59:00.512Z,99291.70
2023-06-17T05:00:03.383Z,99281.98
2023-06-17T05:01:06.133Z,99290.45
2023-06-17T05:02:08.662Z,99297.09
2023-06-17T05:03:12.122Z,99291.80
2023-06-17T05:04:14.488Z,99295.80
2023-06-17T05:05:16.931Z,99295.80
2023-06-17T05:06:19.248Z,99281.61
2023-06-17T05:07:21.864Z,99290.23
2023-06-17T05:08:24.130Z,99295.75
2023-06-17T05:09:27.851Z,99292.66
2023-06-17T05:10:31.240Z,99294.17
2023-06-17T05:11:34.441Z,99298.73
2023-06-17T05:12:39.351Z,99298.73
2023-06-17T05:13:41.761Z,99298.41
2023-06-17T05:14:45.244Z,99298.95
2023-06-17T05:15:47.680Z,99299.48
2023-06-17T05:16:50.147Z,99303.10
2023-06-17T05:17:53.347Z,99302.81
2023-06-17T05:18:56.368Z,99305.02
2023-06-17T05:19:59.187Z,99293.91
2023-06-17T05:21:04.979Z,99297.20
2023-06-17T05:22:08.451Z,99300.26
2023-06-17T05:23:10.884Z,99301.60
2023-06-17T05:24:13.549Z,99306.32
2023-06-17T05:25:16.894Z,99305.19
2023-06-17T05:26:19.474Z,99309.34
2023-06-17T05:27:21.828Z,99308.36
2023-06-17T05:28:24.488Z,99309.86
2023-06-17T05:29:26.942Z,99303.75
2023-06-17T05:30:31.257Z,99307.91
2023-06-17T05:31:35.458Z,99311.24
2023-06-17T05:32:37.780Z,99320.98
2023-06-17T05:33:40.573Z,99317.06
2023-06-17T05:34:43.349Z,99316.09
2023-06-17T05:35:45.675Z,99318.41
2023-06-17T05:36:48.825Z,99312.83
2023-06-17T05:37:51.227Z,99314.17
2023-06-17T05:38:53.515Z,99317.18
2023-06-17T05:39:55.785Z,99309.92
2023-06-17T05:40:58.259Z,99315.55
2023-06-17T05:42:02.045Z,99310.25
2023-06-17T05:43:04.413Z,99314.70
2023-06-17T05:44:07.182Z,99310.74
2023-06-17T05:45:10.356Z,99317.41
2023-06-17T05:46:14.427Z,99313.63
2023-06-17T05:47:17.019Z,99315.98
2023-06-17T05:48:23.020Z,99313.98
2023-06-17T05:49:27.992Z,99314.83
2023-06-17T05:50:31.139Z,99318.66
2023-06-17T05:51:35.358Z,99319.18
2023-06-17T05:52:38.800Z,99321.38
2023-06-17T05:53:42.293Z,99317.44
2023-06-17T05:54:45.615Z,99322.12
2023-06-17T05:55:48.115Z,99317.47
2023-06-17T05:56:50.889Z,99318.97
2023-06-17T05:57:55.353Z,99313.19
2023-06-17T05:58:58.469Z,99313.67
2023-06-17T06:00:03.768Z,99315.07
2023-06-17T06:01:07.905Z,99318.76
2023-06-17T06:02:09.939Z,99321.92
2023-06-17T06:03:12.529Z,99312.66
2023-06-17T06:04:14.882Z,99315.99
2023-06-17T06:05:17.244Z,99316.34
2023-06-17T06:06:20.776Z,99314.20
2023-06-17T06:07:25.593Z,99313.73
2023-06-17T06:08:28.278Z,99316.39
2023-06-17T06:09:30.666Z,99314.41
2023-06-17T06:10:34.397Z,99315.07
2023-06-17T06:11:37.927Z,99311.43
2023-06-17T06:12:41.158Z,99305.14
2023-06-17T06:13:43.416Z,99314.29
2023-06-17T06:14:46.631Z,99309.50
2023-06-17T06:15:48.919Z,99311.17
2023-06-17T06:16:51.473Z,99313.95
2023-06-17T06:17:53.976Z,99315.11
2023-06-17T06:18:56.190Z,99314.42
2023-06-17T06:19:58.606Z,99313.44
2023-06-17T06:21:01.153Z,99315.11
2023-06-17T06:22:04.637Z,99318.44
2023-06-17T06:23:07.684Z,99314.47
2023-06-17T06:24:10.930Z,99316.30
2023-06-17T06:25:14.780Z,99311.68
2023-06-17T06:26:19.338Z,99315.83
2023-06-17T06:27:21.797Z,99315.48
2023-06-17T06:28:24.160Z,99316.68
2023-06-17T06:29:26.845Z,99318.01
2023-06-17T06:30:30.631Z,99315.86
2023-06-17T06:31:33.954Z,99324.33
2023-06-17T06:32:36.828Z,99313.89
2023-06-17T06:33:40.020Z,99315.22
2023-06-17T06:34:42.769Z,99315.61
2023-06-17T06:35:45.438Z,99319.59
2023-06-17T06:36:50.258Z,99311.15
2023-06-17T06:37:52.499Z,99310.98
2023-06-17T06:38:55.348Z,99319.62
2023-06-17T06:39:58.187Z,99311.00
2023-06-17T06:41:01.335Z,99315.14
2023-06-17T06:42:04.982Z,99312.32
2023-06-17T06:43:09.005Z,99308.67
2023-06-17T06:44:13.059Z,99306.87
2023-06-17T06:45:17.226Z,99309.35
2023-06-17T06:46:20.653Z,99306.70
2023-06-17T06:47:23.808Z,99311.66
2023-06-17T06:48:28.285Z,99314.99
2023-06-17T06:49:31.288Z,99301.55
2023-06-17T06:50:35.784Z,99309.70
2023-06-17T06:51:38.809Z,99306.55
2023-06-17T06:52:41.305Z,99305.05
2023-06-17T06:53:44.866Z,99312.69
2023-06-17T06:54:47.602Z,99307.38
2023-06-17T06:55:50.707Z,99313.02
2023-06-17T06:56:54.816Z,99309.02
2023-06-17T06:57:57.470Z,99312.84
2023-06-17T06:59:00.728Z,99303.71
2023-06-17T07:00:06.242Z,99308.73
2023-06-17T07:01:08.625Z,99300.27
2023-06-17T07:02:11.247Z,99312.70
2023-06-17T07:03:16.049Z,99305.58
2023-06-17T07:04:21.129Z,99309.38
2023-06-17T07:05:24.934Z,99306.40
2023-06-17T07:06:29.897Z,99305.41
2023-06-17T07:07:33.889Z,99292.30
2023-06-17T07:08:36.938Z,99292.30
2023-06-17T07:09:39.988Z,99307.70
2023-06-17T07:10:42.718Z,99308.20
2023-06-17T07:11:45.760Z,99312.34
2023-06-17T07:12:49.589Z,99310.66
2023-06-17T07:13:52.940Z,99310.16
2023-06-17T07:14:56.953Z,99311.64
2023-06-17T07:15:59.566Z,99305.01
2023-06-17T07:17:02.226Z,99315.28
2023-06-17T07:18:05.401Z,99306.13
2023-06-17T07:19:08.267Z,99307.62
2023-06-17T07:20:13.018Z,99303.47
2023-06-17T07:21:15.687Z,99310.13
2023-06-17T07:22:18.414Z,99304.45
2023-06-17T07:23:20.838Z,99296.30
2023-06-17T07:24:23.806Z,99296.30
2023-06-17T07:25:27.128Z,99308.42
2023-06-17T07:26:30.289Z,99309.91
2023-06-17T07:27:32.827Z,99317.22
2023-06-17T07:28:35.343Z,99314.87
2023-06-17T07:29:38.531Z,99311.51
2023-06-17T07:30:42.019Z,99319.80
2023-06-17T07:31:45.446Z,99324.12
2023-06-17T07:32:48.592Z,99318.47
2023-06-17T07:33:55.826Z,99314.44
2023-06-17T07:34:58.190Z,99314.44
2023-06-17T07:36:00.368Z,99315.62
2023-06-17T07:37:03.293Z,99318.94
2023-06-17T07:38:05.949Z,99313.73
2023-06-17T07:39:09.093Z,99312.38
2023-06-17T07:40:14.138Z,99310.74
2023-06-17T07:41:16.992Z,99310.74
2023-06-17T07:42:19.388Z,99307.71
2023-06-17T07:43:22.321Z,99317.17
2023-06-17T07:44:24.760Z,99312.33
2023-06-17T07:45:27.214Z,99317.50
2023-06-17T07:46:31.705Z,99319.61
2023-06-17T07:47:34.172Z,99314.13
2023-06-17T07:48:36.379Z,99312.11
2023-06-17T07:49:39.053Z,99320.27
2023-06-17T07:50:41.587Z,99314.04
2023-06-17T07:51:43.749Z,99311.33
2023-06-17T07:52:46.975Z,99311.46
2023-06-17T07:53:49.889Z,99314.28
2023-06-17T07:54:54.490Z,99314.75
2023-06-17T07:55:56.949Z,99310.74
2023-06-17T07:56:59.674Z,99313.31
2023-06-17T07:58:02.026Z,99312.50
2023-06-17T07:59:05.491Z,99308.36
2023-06-17T08:00:14.179Z,99310.66
2023-06-17T08:01:18.418Z,99310.97
2023-06-17T08:02:21.862Z,99315.58
2023-06-17T08:03:24.544Z,99313.19
2023-06-17T08:04:26.881Z,99320.18
2023-06-17T08:05:29.169Z,99316.52
2023-06-17T08:06:32.635Z,99311.81
2023-06-17T08:07:36.423Z,99312.47
2023-06-17T08:08:39.751Z,99305.78
2023-06-17T08:09:42.153Z,99312.40
2023-06-17T08:10:45.903Z,99314.22
2023-06-17T08:11:49.309Z,99309.73
2023-06-17T08:12:51.797Z,99308.07
2023-06-17T08:13:54.200Z,99308.07
2023-06-17T08:15:00.164Z,99318.92
2023-06-17T08:16:03.116Z,99305.95
2023-06-17T08:17:07.371Z,99301.81
2023-06-17T08:18:10.251Z,99308.61
2023-06-17T08:19:22.145Z,99314.13
2023-06-17T08:20:28.597Z,99308.45
2023-06-17T08:21:31.088Z,99308.89
2023-06-17T08:22:34.924Z,99299.07
2023-06-17T08:23:39.481Z,99315.65
2023-06-17T08:24:42.548Z,99303.36
2023-06-17T08:25:47.520Z,99303.73
2023-06-17T08:26:50.779Z,99309.61
2023-06-17T08:27:54.100Z,99312.19
2023-06-17T08:28:56.474Z,99307.38
2023-06-17T08:29:59.292Z,99297.20
2023-06-17T08:31:02.533Z,99297.20
2023-06-17T08:32:05.510Z,99312.36
2023-06-17T08:33:08.016Z,99308.37
2023-06-17T08:34:11.634Z,99307.67
2023-06-17T08:35:14.898Z,99313.34
2023-06-17T08:36:17.326Z,99307.19
2023-06-17T08:37:19.619Z,99310.59
2023-06-17T08:38:22.007Z,99312.45
2023-06-17T08:39:25.031Z,99316.33
2023-06-17T08:40:28.731Z,99319.65
2023-06-17T08:41:34.189Z,99316.24
2023-06-17T08:42:36.375Z,99316.24
2023-06-17T08:43:40.599Z,99317.45
2023-06-17T08:44:45.292Z,99311.60
2023-06-17T08:45:50.750Z,99314.67
2023-06-17T08:46:54.696Z,99317.08
2023-06-17T08:47:58.441Z,99316.23
2023-06-17T08:49:03.021Z,99317.25
2023-06-17T08:50:08.320Z,99320.56
2023-06-17T08:51:11.072Z,99324.24
2023-06-17T08:52:17.405Z,99321.51
2023-06-17T08:53:20.398Z,99322.22
2023-06-17T08:54:23.510Z,99325.44
2023-06-17T08:55:25.851Z,99311.09
2023-06-17T08:56:28.545Z,99315.72
2023-06-17T08:57:32.960Z,99318.38
2023-06-17T08:58:38.129Z,99317.70
2023-06-17T08:59:43.686Z,99318.52
2023-06-17T09:00:46.263Z,99319.91
2023-06-17T09:01:51.833Z,99318.90
2023-06-17T09:02:58.280Z,99310.70
2023-06-17T09:04:02.182Z,99313.30
2023-06-17T09:05:05.887Z,99314.11
2023-06-17T09:06:28.947Z,99320.45
2023-06-17T09:07:33.467Z,99311.45
2023-06-17T09:08:36.308Z,99311.00
2023-06-17T09:09:38.860Z,99315.16
2023-06-17T09:10:45.277Z,99313.31
2023-06-17T09:11:54.666Z,99311.29
2023-06-17T09:13:00.830Z,99308.69
2023-06-17T09:14:04.579Z,99314.37
2023-06-17T09:15:08.942Z,99308.64
2023-06-17T09:16:13.381Z,99305.70
2023-06-17T09:17:33.391Z,99314.87
2023-06-17T09:18:36.423Z,99306.55
2023-06-17T09:19:42.739Z,99316.09
2023-06-17T09:20:52.187Z,99316.63
2023-06-17T09:21:56.407Z,99315.93
2023-06-17T09:22:59.249Z,99311.03
2023-06-17T09:24:06.567Z,99310.62
2023-06-17T09:25:12.041Z,99315.20
2023-06-17T09:26:15.161Z,99312.77
2023-06-17T09:27:21.957Z,99320.22
2023-06-17T09:28:25.899Z,99310.36
2023-06-17T09:29:30.588Z,99309.79
2023-06-17T09:30:37.074Z,99311.58
2023-06-17T09:31:54.849Z,99312.77
2023-06-17T09:32:57.830Z,99310.36
2023-06-17T09:34:06.391Z,99303.73
2023-06-17T09:35:17.285Z,99313.03
2023-06-17T09:36:21.814Z,99311.05
2023-06-17T09:37:25.063Z,99311.86
2023-06-17T09:38:34.211Z,99309.83
2023-06-17T09:39:37.948Z,99301.80
2023-06-17T09:40:42.578Z,99302.33
2023-06-17T09:41:45.998Z,99306.72
2023-06-17T09:42:50.225Z,99295.48
2023-06-17T09:43:53.655Z,99301.70
2023-06-17T09:44:56.104Z,99297.16
2023-06-17T09:46:05.498Z,99298.02
2023-06-17T09:47:09.734Z,99296.95
2023-06-17T09:48:14.015Z,99297.16
2023-06-17T09:49:23.249Z,99297.32
2023-06-17T09:50:27.280Z,99297.45
2023-06-17T09:51:32.396Z,99293.98
2023-06-17T09:52:37.808Z,99287.19
2023-06-17T09:53:44.635Z,99293.40
2023-06-17T09:54:47.216Z,99292.73
2023-06-17T09:55:52.077Z,99296.02
2023-06-17T09:56:57.053Z,99289.80
2023-06-17T09:58:00.620Z,99290.77
2023-06-17T09:59:08.566Z,99289.92
2023-06-17T10:00:13.827Z,99289.54
2023-06-17T10:01:16.630Z,99287.19
2023-06-17T10:02:19.073Z,99284.95
2023-06-17T10:03:21.656Z,99287.05
2023-06-17T10:04:24.245Z,99286.58
2023-06-17T10:05:27.868Z,99292.70
2023-06-17T10:06:32.223Z,99294.50
2023-06-17T10:07:36.768Z,99293.81
2023-06-17T10:08:42.766Z,99297.38
2023-06-17T10:09:48.123Z,99291.02
2023-06-17T10:10:52.816Z,99295.14
2023-06-17T10:11:58.559Z,99294.16
2023-06-17T10:13:06.095Z,99285.42
2023-06-17T10:14:13.067Z,99291.00
2023-06-17T10:15:18.977Z,99286.29
2023-06-17T10:16:25.046Z,99292.48
2023-06-17T10:17:29.517Z,99295.15
2023-06-17T10:18:35.799Z,99294.54
2023-06-17T10:19:43.083Z,99292.30
2023-06-17T10:20:48.290Z,99285.64
2023-06-17T10:21:56.649Z,99289.34
2023-06-17T10:23:02.783Z,99284.22
2023-06-17T10:24:06.422Z,99287.53
2023-06-17T10:25:11.706Z,99290.00
2023-06-17T10:26:14.876Z,99288.78
2023-06-17T10:27:22.178Z,99283.44
2023-06-17T10:28:24.512Z,99285.09
2023-06-17T10:29:26.925Z,99286.89
2023-06-17T10:30:30.779Z,99282.97
2023-06-17T10:31:39.795Z,99279.28
2023-06-17T10:32:46.830Z,99279.31
2023-06-17T10:33:53.381Z,99288.78
2023-06-17T10:35:15.976Z,99275.90
2023-06-17T10:36:23.878Z,99280.30
2023-06-17T10:37:27.808Z,99280.84
2023-06-17T10:38:31.259Z,99268.95
2023-06-17T10:39:34.070Z,99279.09
2023-06-17T10:40:44.019Z,99275.78
2023-06-17T10:41:54.751Z,99275.78
2023-06-17T10:43:07.012Z,99273.10
2023-06-17T10:45:55.165Z,99271.17
2023-06-17T10:46:57.958Z,99274.45
2023-06-17T10:48:23.286Z,99272.33
2023-06-17T10:49:27.002Z,99274.41
2023-06-17T10:50:30.575Z,99277.08
2023-06-17T10:51:41.562Z,99287.41
2023-06-17T10:52:41.119Z,99281.80
2023-06-17T10:53:51.141Z,99283.88
2023-06-17T10:54:56.939Z,99280.36
2023-06-17T10:56:00.818Z,99282.44
2023-06-17T10:57:07.545Z,99276.42
2023-06-17T10:58:11.045Z,99279.69
2023-06-17T10:59:13.810Z,99279.30
2023-06-17T11:00:16.790Z,99275.58
2023-06-17T11:01:19.127Z,99279.27
2023-06-17T11:02:21.544Z,99277.19
2023-06-17T11:03:23.954Z,99279.66
2023-06-17T11:05:42.856Z,99272.30
2023-06-17T11:06:48.526Z,99277.99
2023-06-17T11:07:58.419Z,99270.17
2023-06-17T11:09:04.952Z,99275.95
2023-06-17T11:10:08.802Z,99265.67
2023-06-17T11:11:17.320Z,99268.63
2023-06-17T11:12:20.706Z,99269.08
2023-06-17T11:13:23.288Z,99272.36
2023-06-17T11:14:28.477Z,99274.45
2023-06-17T11:15:34.799Z,99269.88
2023-06-17T11:16:39.679Z,99266.84
2023-06-17T11:17:43.281Z,99269.05
2023-06-17T11:18:50.127Z,99272.75
2023-06-17T11:19:52.210Z,99271.70
2023-06-17T11:20:54.373Z,99266.12
2023-06-17T11:21:58.146Z,99264.83
2023-06-17T11:23:00.470Z,99264.44
2023-06-17T11:24:02.973Z,99265.28
2023-06-17T11:25:06.626Z,99264.86
2023-06-17T11:26:10.586Z,99264.47
2023-06-17T11:27:13.200Z,99266.52
2023-06-17T11:28:15.654Z,99271.03
2023-06-17T11:29:20.019Z,99266.90
2023-06-17T11:30:24.420Z,99265.62
2023-06-17T11:31:27.451Z,99258.16
2023-06-17T11:32:33.180Z,99265.53
2023-06-17T11:33:37.789Z,99265.11
2023-06-17T11:34:42.214Z,99259.71
2023-06-17T11:35:44.861Z,99261.32
2023-06-17T11:36:53.972Z,99258.04
2023-06-17T11:37:56.298Z,99260.48
2023-06-17T11:38:59.100Z,99265.42
2023-06-17T11:40:01.788Z,99265.11
2023-06-17T11:41:06.993Z,99261.22
2023-06-17T11:42:10.074Z,99252.80
2023-06-17T11:43:13.221Z,99254.32
2023-06-17T11:44:15.908Z,99266.05
2023-06-17T11:45:18.339Z,99244.39
2023-06-17T11:46:29.423Z,99244.39
2023-06-17T11:47:35.871Z,99261.85
2023-06-17T11:48:38.452Z,99258.97
2023-06-17T11:49:44.757Z,99262.35
2023-06-17T11:50:50.713Z,99262.14
2023-06-17T11:51:55.233Z,99262.78
2023-06-17T11:52:57.797Z,99258.27
2023-06-17T11:54:09.759Z,99253.34
2023-06-17T11:55:19.213Z,99258.28
2023-06-17T11:56:24.065Z,99257.49
2023-06-17T11:57:27.234Z,99250.34
2023-06-17T11:58:29.763Z,99253.87
2023-06-17T11:59:36.413Z,99252.64
2023-06-17T12:00:45.268Z,99248.26
2023-06-17T12:01:48.072Z,99249.61
2023-06-17T12:02:50.461Z,99243.34
2023-06-17T12:03:57.494Z,99237.48
2023-06-17T12:05:03.707Z,99239.03
2023-06-17T12:06:06.813Z,99241.20
2023-06-17T12:07:09.212Z,99240.16
2023-06-17T12:08:12.383Z,99239.80
2023-06-17T12:09:17.050Z,99233.98
2023-06-17T12:10:22.356Z,99244.74
2023-06-17T12:11:38.000Z,99240.83
2023-06-17T12:12:41.554Z,99244.06
2023-06-17T12:13:43.832Z,99238.73
2023-06-17T12:14:46.171Z,99238.02
2023-06-17T12:15:48.422Z,99239.81
2023-06-17T12:16:53.195Z,99239.84
2023-06-17T12:17:57.467Z,99242.33
2023-06-17T12:19:02.644Z,99244.06
2023-06-17T12:20:07.199Z,99238.77
2023-06-17T12:21:12.139Z,99233.06
2023-06-17T12:22:15.276Z,99240.14
2023-06-17T12:23:17.561Z,99234.34
2023-06-17T12:24:19.870Z,99233.73
2023-06-17T12:25:22.227Z,99240.79
2023-06-17T12:26:26.221Z,99230.28
2023-06-17T12:27:31.311Z,99235.25
2023-06-17T12:28:34.455Z,99237.71
2023-06-17T12:29:37.589Z,99231.13
2023-06-17T12:30:39.987Z,99226.23
2023-06-17T12:31:44.037Z,99227.05
2023-06-17T12:32:46.766Z,99226.83
2023-06-17T12:33:50.775Z,99224.95
2023-06-17T12:34:53.962Z,99223.30
2023-06-17T12:35:57.181Z,99224.55
2023-06-17T12:37:00.929Z,99225.98